createdAt,value
2019-03-11T00:00:57.755Z,70.70
2019-03-11T00:03:25.731Z,69.70
2019-03-11T00:05:53.519Z,70.50
2019-03-11T00:08:21.334Z,70.70
2019-03-11T00:10:48.823Z,71.20
2019-03-11T00:13:16.332Z,70.20
2019-03-11T00:15:43.896Z,71.50
2019-03-11T00:18:11.793Z,72.30
2019-03-11T00:20:39.940Z,72.30
2019-03-11T00:23:07.771Z,73.20
2019-03-11T00:25:35.518Z,74.40
2019-03-11T00:28:03.175Z,75.00
2019-03-11T00:30:30.763Z,75.00
2019-03-11T00:32:58.556Z,75.20
2019-03-11T00:35:26.326Z,74.50
2019-03-11T00:37:54.230Z,75.80
2019-03-11T00:40:21.980Z,75.20
2019-03-11T00:42:49.459Z,75.50
2019-03-11T00:45:17.526Z,76.30
2019-03-11T00:47:45.662Z,75.50
2019-03-11T00:50:13.254Z,75.90
2019-03-11T00:52:41.308Z,75.10
2019-03-11T00:55:09.374Z,75.60
2019-03-11T00:57:37.270Z,74.60
2019-03-11T01:00:07.448Z,75.50
2019-03-11T01:02:34.958Z,75.30
2019-03-11T01:05:02.467Z,75.00
2019-03-11T01:07:30.582Z,75.80
2019-03-11T01:09:58.404Z,75.30
2019-03-11T01:12:26.051Z,75.30
2019-03-11T01:14:53.563Z,75.90
2019-03-11T01:17:21.384Z,76.60
2019-03-11T01:19:48.988Z,76.90
2019-03-11T01:22:16.615Z,77.40
2019-03-11T01:24:44.791Z,76.40
2019-03-11T01:27:12.635Z,76.70
2019-03-11T01:29:40.259Z,77.70
2019-03-11T01:32:08.020Z,77.50
2019-03-11T01:34:35.792Z,76.70
2019-03-11T01:37:03.970Z,77.60
2019-03-11T01:39:31.811Z,76.30
2019-03-11T01:41:59.868Z,75.90
2019-03-11T01:44:28.335Z,76.90
2019-03-11T01:46:55.979Z,76.30
2019-03-11T01:49:24.082Z,76.20
2019-03-11T01:51:51.894Z,76.30
2019-03-11T01:54:20.262Z,75.00
2019-03-11T01:56:47.775Z,75.50
2019-03-11T01:59:15.295Z,76.10
2019-03-11T02:01:43.435Z,75.00
2019-03-11T02:04:10.982Z,75.60
2019-03-11T02:06:38.791Z,75.40
2019-03-11T02:09:08.119Z,74.70
2019-03-11T02:11:35.618Z,75.50
2019-03-11T02:14:03.547Z,75.40
2019-03-11T02:16:31.476Z,75.50
2019-03-11T02:18:59.411Z,75.20
2019-03-11T02:21:27.352Z,75.40
2019-03-11T02:23:55.923Z,74.90
2019-03-11T02:26:23.369Z,76.40
2019-03-11T02:28:51.248Z,75.40
2019-03-11T02:31:19.035Z,74.60
2019-03-11T02:33:47.495Z,75.90
2019-03-11T02:36:15.399Z,75.10
2019-03-11T02:38:43.498Z,75.40
2019-03-11T02:41:11.358Z,75.10
2019-03-11T02:43:38.973Z,75.50
2019-03-11T02:46:06.880Z,75.30
2019-03-11T02:48:34.739Z,75.80
2019-03-11T02:51:02.663Z,75.80
2019-03-11T02:53:30.570Z,75.30
2019-03-11T02:55:58.067Z,76.20
2019-03-11T02:58:25.679Z,76.80
2019-03-11T03:01:05.847Z,76.30
2019-03-11T03:03:37.960Z,76.50
2019-03-11T03:06:08.942Z,75.70
2019-03-11T03:08:36.734Z,76.00
2019-03-11T03:11:04.310Z,77.10
2019-03-11T03:13:32.562Z,77.90
2019-03-11T03:16:00.407Z,78.20
2019-03-11T03:18:27.955Z,77.70
2019-03-11T03:20:55.850Z,78.40
2019-03-11T03:23:23.355Z,78.00
2019-03-11T03:25:50.980Z,78.40
2019-03-11T03:28:18.585Z,78.10
2019-03-11T03:30:46.479Z,78.20
2019-03-11T03:33:14.050Z,79.10
2019-03-11T03:35:41.986Z,79.00
2019-03-11T03:38:09.787Z,78.40
2019-03-11T03:40:37.916Z,78.70
2019-03-11T03:43:05.872Z,78.80
2019-03-11T03:45:41.575Z,79.40
2019-03-11T03:48:09.760Z,79.40
2019-03-11T03:50:38.164Z,80.00
2019-03-11T03:53:05.761Z,79.60
2019-03-11T03:55:33.934Z,80.50
2019-03-11T03:58:01.561Z,80.20
2019-03-11T04:00:29.173Z,80.80
2019-03-11T04:02:57.354Z,81.00
2019-03-11T04:05:25.786Z,82.10
2019-03-11T04:07:53.412Z,80.80
2019-03-11T04:10:20.890Z,80.90
2019-03-11T04:12:48.503Z,80.20
2019-03-11T04:15:16.986Z,80.30
2019-03-11T04:17:44.882Z,80.40
2019-03-11T04:20:14.084Z,79.70
2019-03-11T04:22:42.130Z,78.80
2019-03-11T04:25:09.750Z,80.10
2019-03-11T04:27:37.884Z,80.00
2019-03-11T04:30:08.319Z,83.00
2019-03-11T04:32:36.504Z,90.90
2019-03-11T04:35:04.454Z,92.20
2019-03-11T04:37:31.939Z,93.80
2019-03-11T04:39:59.789Z,94.10
2019-03-11T04:42:27.380Z,95.90
2019-03-11T04:44:55.862Z,96.10
2019-03-11T04:47:23.698Z,97.20
2019-03-11T04:49:51.347Z,97.80
2019-03-11T04:52:19.116Z,97.40
2019-03-11T04:54:46.906Z,97.80
2019-03-11T04:57:15.289Z,96.60
2019-03-11T04:59:43.157Z,97.40
2019-03-11T05:02:10.749Z,98.20
2019-03-11T05:04:38.892Z,97.10
2019-03-11T05:07:06.743Z,98.00
2019-03-11T05:09:34.559Z,97.50
2019-03-11T05:12:02.375Z,97.20
2019-03-11T05:14:30.266Z,97.00
2019-03-11T05:16:58.565Z,97.00
2019-03-11T05:19:26.710Z,96.80
2019-03-11T05:21:54.866Z,96.50
2019-03-11T05:24:22.724Z,97.20
2019-03-11T05:26:51.335Z,96.50
2019-03-11T05:29:18.798Z,96.20
2019-03-11T05:31:46.931Z,96.00
2019-03-11T05:34:15.021Z,95.20
2019-03-11T05:36:42.624Z,95.00
2019-03-11T05:39:10.738Z,94.30
2019-03-11T05:41:38.380Z,94.70
2019-03-11T05:44:06.289Z,94.60
2019-03-11T05:46:34.403Z,93.80
2019-03-11T05:49:02.455Z,93.20
2019-03-11T05:51:32.189Z,92.70
2019-03-11T05:54:00.335Z,92.60
2019-03-11T05:56:28.156Z,91.50
2019-03-11T05:58:56.517Z,90.70
2019-03-11T06:01:24.494Z,91.10
2019-03-11T06:03:52.272Z,90.10
2019-03-11T06:06:19.855Z,90.60
2019-03-11T06:08:47.776Z,90.00
2019-03-11T06:11:15.373Z,90.50
2019-03-11T06:13:42.895Z,90.50
2019-03-11T06:16:10.398Z,89.90
2019-03-11T06:18:44.115Z,90.40
2019-03-11T06:21:22.083Z,89.70
2019-03-11T06:23:49.539Z,89.60
2019-03-11T06:26:17.414Z,89.90
2019-03-11T06:28:45.351Z,89.50
2019-03-11T06:31:13.274Z,90.00
2019-03-11T06:33:41.324Z,86.80
2019-03-11T06:36:08.814Z,85.50
2019-03-11T06:38:36.704Z,86.30
2019-03-11T06:41:04.746Z,86.40
2019-03-11T06:43:34.272Z,85.30
2019-03-11T06:46:01.883Z,83.00
2019-03-11T06:48:29.702Z,82.50
2019-03-11T06:50:58.215Z,83.10
2019-03-11T06:53:26.522Z,82.00
2019-03-11T06:55:54.371Z,83.10
2019-03-11T06:58:22.186Z,82.80
2019-03-11T07:00:49.823Z,81.40
2019-03-11T07:03:17.347Z,80.70
2019-03-11T07:05:44.860Z,79.60
2019-03-11T07:08:13.194Z,77.40
2019-03-11T07:10:40.805Z,78.90
2019-03-11T07:13:08.591Z,78.00
2019-03-11T07:15:36.198Z,77.80
2019-03-11T07:18:03.804Z,76.50
2019-03-11T07:20:31.791Z,75.30
2019-03-11T07:23:00.210Z,75.60
2019-03-11T07:25:27.728Z,74.50
2019-03-11T07:27:55.819Z,73.10
2019-03-11T07:30:23.279Z,71.70
2019-03-11T07:32:51.389Z,71.80
2019-03-11T07:35:19.535Z,71.80
2019-03-11T07:37:47.081Z,71.70
2019-03-11T07:40:15.444Z,69.40
2019-03-11T07:42:43.304Z,66.60
2019-03-11T07:45:11.527Z,65.70
2019-03-11T07:47:41.683Z,62.00
2019-03-11T07:50:09.470Z,55.50
2019-03-11T07:52:38.127Z,48.80
2019-03-11T07:55:06.130Z,43.30
2019-03-11T07:57:33.658Z,39.30
2019-03-11T08:00:01.996Z,38.60
2019-03-11T08:02:29.591Z,38.20
2019-03-11T08:04:57.214Z,39.50
2019-03-11T08:07:27.317Z,39.30
2019-03-11T08:09:55.210Z,39.00
2019-03-11T08:12:23.067Z,39.00
2019-03-11T08:14:50.899Z,37.50
2019-03-11T08:17:18.407Z,36.30
2019-03-11T08:19:45.981Z,36.80
2019-03-11T08:22:13.510Z,38.60
2019-03-11T08:24:41.416Z,42.90
2019-03-11T08:27:09.391Z,46.90
2019-03-11T08:29:37.561Z,51.00
2019-03-11T08:32:05.406Z,56.10
2019-03-11T08:34:33.902Z,57.20
2019-03-11T08:37:01.824Z,57.70
2019-03-11T08:39:29.922Z,58.00
2019-03-11T08:41:57.735Z,56.60
2019-03-11T08:44:25.246Z,58.30
2019-03-11T08:46:53.570Z,59.30
2019-03-11T08:49:21.976Z,59.50
2019-03-11T08:51:49.521Z,60.80
2019-03-11T08:54:17.322Z,62.10
2019-03-11T08:56:45.175Z,62.70
2019-03-11T08:59:12.627Z,59.70
2019-03-11T09:01:41.048Z,59.60
2019-03-11T09:04:08.641Z,61.00
2019-03-11T09:06:36.879Z,62.70
2019-03-11T09:09:06.087Z,59.60
2019-03-11T09:11:34.147Z,54.10
2019-03-11T09:14:01.969Z,50.80
2019-03-11T09:16:29.653Z,51.40
2019-03-11T09:18:57.826Z,52.50
2019-03-11T09:21:25.616Z,54.40
2019-03-11T09:23:53.518Z,54.50
2019-03-11T09:26:21.066Z,48.60
2019-03-11T09:28:48.960Z,46.60
2019-03-11T09:31:16.560Z,46.90
2019-03-11T09:33:44.358Z,47.40
2019-03-11T09:36:12.208Z,48.60
2019-03-11T09:38:40.077Z,49.00
2019-03-11T09:41:07.582Z,48.30
2019-03-11T09:43:35.324Z,49.10
2019-03-11T09:46:03.226Z,49.70
2019-03-11T09:48:31.360Z,50.20
2019-03-11T09:50:59.330Z,50.70
2019-03-11T09:53:26.957Z,51.90
2019-03-11T09:55:54.573Z,51.40
2019-03-11T09:58:22.463Z,50.70
2019-03-11T10:00:50.869Z,50.70
2019-03-11T10:03:18.939Z,50.20
2019-03-11T10:05:47.127Z,48.30
2019-03-11T10:08:15.331Z,46.60
2019-03-11T10:10:43.386Z,46.40
2019-03-11T10:13:11.616Z,45.30
2019-03-11T10:15:39.163Z,45.50
2019-03-11T10:18:06.827Z,44.40
2019-03-11T10:20:34.316Z,43.50
2019-03-11T10:23:01.986Z,44.60
2019-03-11T10:25:29.505Z,45.50
2019-03-11T10:27:57.411Z,46.40
2019-03-11T10:30:25.199Z,48.00
2019-03-11T10:32:53.078Z,48.60
2019-03-11T10:35:32.104Z,49.40
2019-03-11T10:37:50.467Z,49.40
2019-03-11T10:40:19.007Z,49.00
2019-03-11T10:42:46.666Z,49.50
2019-03-11T10:45:14.246Z,50.10
2019-03-11T10:47:42.351Z,49.40
2019-03-11T10:50:10.131Z,49.20
2019-03-11T10:52:37.658Z,50.00
2019-03-11T10:55:06.040Z,48.50
2019-03-11T10:57:34.022Z,49.50
2019-03-11T11:00:01.879Z,48.60
2019-03-11T11:02:30.384Z,48.60
2019-03-11T11:04:58.643Z,47.20
2019-03-11T11:07:26.569Z,46.70
2019-03-11T11:09:54.378Z,46.80
2019-03-11T11:12:22.034Z,46.60
2019-03-11T11:14:50.176Z,46.50
2019-03-11T11:17:18.419Z,45.70
2019-03-11T11:19:46.178Z,45.80
2019-03-11T11:22:14.152Z,45.00
2019-03-11T11:24:41.751Z,43.70
2019-03-11T11:27:09.362Z,43.40
2019-03-11T11:29:36.942Z,44.40
2019-03-11T11:32:04.779Z,44.60
2019-03-11T11:34:33.094Z,45.00
2019-03-11T11:37:01.151Z,45.90
2019-03-11T11:39:29.102Z,44.80
2019-03-11T11:41:56.846Z,46.20
2019-03-11T11:44:24.396Z,46.80
2019-03-11T11:46:52.394Z,46.70
2019-03-11T11:49:20.099Z,47.50
2019-03-11T11:51:48.153Z,48.10
2019-03-11T11:54:17.374Z,48.00
2019-03-11T11:56:45.723Z,48.00
2019-03-11T11:59:13.315Z,48.00
2019-03-11T12:01:42.599Z,48.50
2019-03-11T12:04:10.556Z,47.70
2019-03-11T12:06:38.891Z,48.70
2019-03-11T12:09:07.727Z,49.10
2019-03-11T12:11:37.919Z,49.40
2019-03-11T12:14:06.039Z,50.00
2019-03-11T12:16:33.685Z,50.40
2019-03-11T12:19:01.242Z,49.70
2019-03-11T12:21:29.379Z,50.00
2019-03-11T12:23:59.426Z,50.10
2019-03-11T12:26:27.027Z,49.50
2019-03-11T12:28:55.307Z,47.70
2019-03-11T12:31:23.953Z,47.20
2019-03-11T12:33:51.859Z,47.00
2019-03-11T12:36:19.659Z,46.10
2019-03-11T12:38:47.163Z,46.00
2019-03-11T12:41:14.762Z,45.30
2019-03-11T12:43:43.268Z,44.80
2019-03-11T12:46:10.871Z,46.40
2019-03-11T12:48:38.408Z,47.20
2019-03-11T12:51:10.547Z,48.10
2019-03-11T12:53:38.142Z,49.90
2019-03-11T12:56:05.739Z,49.70
2019-03-11T12:58:41.048Z,50.60
2019-03-11T13:01:04.035Z,49.80
2019-03-11T13:03:31.988Z,50.40
2019-03-11T13:05:59.474Z,49.60
2019-03-11T13:08:28.122Z,49.20
2019-03-11T13:10:56.506Z,49.40
2019-03-11T13:13:24.399Z,49.30
2019-03-11T13:15:53.428Z,49.40
2019-03-11T13:18:38.360Z,49.20
2019-03-11T13:21:29.211Z,49.70
2019-03-11T13:23:57.696Z,49.80
2019-03-11T13:26:25.795Z,48.70
2019-03-11T13:28:54.086Z,49.80
2019-03-11T13:31:22.315Z,48.90
2019-03-11T13:33:49.978Z,50.00
2019-03-11T13:36:17.581Z,48.80
2019-03-11T13:38:45.186Z,48.70
2019-03-11T13:41:13.401Z,49.60
2019-03-11T13:43:41.088Z,49.30
2019-03-11T13:46:09.812Z,49.20
2019-03-11T13:48:37.611Z,49.00
2019-03-11T13:51:05.145Z,48.30
2019-03-11T13:53:33.397Z,48.30
2019-03-11T13:56:01.543Z,47.90
2019-03-11T13:58:29.055Z,47.60
2019-03-11T14:00:57.273Z,48.10
2019-03-11T14:03:25.491Z,48.70
2019-03-11T14:05:53.626Z,49.00
2019-03-11T14:08:21.914Z,49.40
2019-03-11T14:10:49.758Z,50.50
2019-03-11T14:13:17.998Z,52.60
2019-03-11T14:15:45.920Z,54.70
2019-03-11T14:18:13.549Z,58.10
2019-03-11T14:20:41.185Z,59.50
2019-03-11T14:23:09.080Z,59.40
2019-03-11T14:25:36.835Z,59.40
2019-03-11T14:28:05.231Z,58.60
2019-03-11T14:30:33.070Z,58.00
2019-03-11T14:33:01.127Z,58.50
2019-03-11T14:35:28.590Z,57.80
2019-03-11T14:37:56.137Z,56.50
2019-03-11T14:40:24.445Z,55.30
2019-03-11T14:42:52.286Z,55.60
2019-03-11T14:45:19.891Z,53.30
2019-03-11T14:47:47.844Z,52.50
2019-03-11T14:50:16.186Z,52.30
2019-03-11T14:52:44.349Z,52.20
2019-03-11T14:55:12.093Z,51.30
2019-03-11T14:57:39.719Z,51.90
2019-03-11T15:00:09.532Z,52.20
2019-03-11T15:02:37.758Z,51.70
2019-03-11T15:05:06.030Z,50.70
2019-03-11T15:07:33.651Z,52.30
2019-03-11T15:10:01.335Z,52.20
2019-03-11T15:12:29.675Z,52.80
2019-03-11T15:14:57.260Z,53.10
2019-03-11T15:17:25.502Z,51.50
2019-03-11T15:19:53.687Z,51.20
2019-03-11T15:22:22.340Z,52.60
2019-03-11T15:24:50.450Z,51.80
2019-03-11T15:27:18.819Z,52.50
2019-03-11T15:29:46.674Z,57.60
2019-03-11T15:32:14.272Z,69.50
2019-03-11T15:34:42.134Z,75.90
2019-03-11T15:37:09.605Z,79.10
2019-03-11T15:39:37.204Z,80.00
2019-03-11T15:42:04.724Z,81.20
2019-03-11T15:44:32.608Z,80.00
2019-03-11T15:47:00.378Z,79.10
2019-03-11T15:49:28.728Z,76.20
2019-03-11T15:51:56.294Z,71.00
2019-03-11T15:54:24.228Z,69.20
2019-03-11T15:56:52.102Z,68.70
2019-03-11T15:59:20.282Z,70.30
2019-03-11T16:01:48.194Z,69.30
2019-03-11T16:04:15.714Z,63.80
2019-03-11T16:06:43.225Z,63.40
2019-03-11T16:09:19.185Z,62.90
2019-03-11T16:11:40.454Z,61.90
2019-03-11T16:14:08.104Z,60.80
2019-03-11T16:16:36.742Z,61.70
2019-03-11T16:19:04.868Z,61.40
2019-03-11T16:21:32.806Z,60.00
2019-03-11T16:24:00.554Z,58.60
2019-03-11T16:26:28.580Z,59.60
2019-03-11T16:28:56.110Z,60.90
2019-03-11T16:31:23.958Z,61.60
2019-03-11T16:33:52.715Z,59.60
2019-03-11T16:36:20.623Z,58.90
2019-03-11T16:38:48.626Z,58.40
2019-03-11T16:41:16.526Z,58.10
2019-03-11T16:43:45.222Z,57.90
2019-03-11T16:46:13.578Z,58.60
2019-03-11T16:48:41.078Z,58.40
2019-03-11T16:51:09.007Z,58.20
2019-03-11T16:53:37.059Z,57.80
2019-03-11T16:56:05.043Z,57.80
2019-03-11T16:58:33.220Z,57.40
2019-03-11T17:01:01.313Z,58.40
2019-03-11T17:03:29.641Z,57.90
2019-03-11T17:05:57.291Z,58.30
2019-03-11T17:08:25.085Z,59.20
2019-03-11T17:10:53.418Z,59.70
2019-03-11T17:13:21.270Z,59.50
2019-03-11T17:15:49.554Z,59.80
2019-03-11T17:18:18.227Z,60.20
2019-03-11T17:20:46.089Z,60.50
2019-03-11T17:23:30.354Z,61.10
2019-03-11T17:26:01.846Z,60.60
2019-03-11T17:28:29.358Z,61.00
2019-03-11T17:30:57.595Z,62.50
2019-03-11T17:33:25.095Z,61.60
2019-03-11T17:35:53.071Z,61.80
2019-03-11T17:38:21.200Z,62.10
2019-03-11T17:40:49.431Z,62.00
2019-03-11T17:43:19.059Z,62.50
2019-03-11T17:45:47.280Z,62.50
2019-03-11T17:48:14.838Z,62.30
2019-03-11T17:50:42.934Z,61.60
2019-03-11T17:53:19.471Z,61.00
2019-03-11T17:55:40.212Z,61.30
2019-03-11T17:58:08.110Z,61.50
2019-03-11T18:00:38.133Z,60.90
2019-03-11T18:03:05.732Z,61.00
2019-03-11T18:05:34.514Z,61.40
2019-03-11T18:08:02.185Z,61.70
2019-03-11T18:10:29.801Z,62.70
2019-03-11T18:12:57.371Z,63.10
2019-03-11T18:15:25.197Z,64.50
2019-03-11T18:17:53.107Z,64.40
2019-03-11T18:20:21.360Z,65.30
2019-03-11T18:22:49.504Z,66.30
2019-03-11T18:25:17.604Z,68.10
2019-03-11T18:27:45.368Z,67.60
2019-03-11T18:30:16.345Z,68.20
2019-03-11T18:32:44.263Z,69.70
2019-03-11T18:35:12.227Z,69.30
2019-03-11T18:37:40.156Z,69.20
2019-03-11T18:40:09.286Z,69.50
2019-03-11T18:42:36.955Z,69.30
2019-03-11T18:45:05.140Z,68.90
2019-03-11T18:47:33.267Z,69.00
2019-03-11T18:50:01.035Z,68.80
2019-03-11T18:52:28.603Z,68.60
2019-03-11T18:54:56.499Z,67.80
2019-03-11T18:57:24.406Z,67.70
2019-03-11T18:59:51.982Z,67.10
2019-03-11T19:02:19.839Z,67.70
2019-03-11T19:04:47.430Z,68.40
2019-03-11T19:07:15.437Z,67.50
2019-03-11T19:09:43.408Z,68.90
2019-03-11T19:12:11.877Z,69.20
2019-03-11T19:14:39.459Z,68.30
2019-03-11T19:17:07.090Z,68.50
2019-03-11T19:19:45.635Z,68.30
2019-03-11T19:22:04.429Z,68.80
2019-03-11T19:24:32.003Z,70.40
2019-03-11T19:27:00.634Z,69.70
2019-03-11T19:29:28.638Z,70.40
2019-03-11T19:31:56.559Z,69.70
2019-03-11T19:34:24.450Z,72.00
2019-03-11T19:36:52.664Z,70.30
2019-03-11T19:39:21.452Z,69.60
2019-03-11T19:41:50.490Z,69.80
2019-03-11T19:44:19.085Z,70.90
2019-03-11T19:46:47.233Z,70.80
2019-03-11T19:49:15.402Z,70.70
2019-03-11T19:51:43.598Z,70.40
2019-03-11T19:54:13.069Z,70.90
2019-03-11T19:56:41.520Z,70.90
2019-03-11T19:59:09.123Z,70.70
2019-03-11T20:01:36.662Z,70.00
2019-03-11T20:04:04.236Z,71.10
2019-03-11T20:06:32.462Z,71.70
2019-03-11T20:09:00.145Z,70.80
2019-03-11T20:11:27.827Z,72.20
2019-03-11T20:13:55.752Z,72.30
2019-03-11T20:16:23.463Z,71.80
2019-03-11T20:18:50.993Z,72.20
2019-03-11T20:21:18.723Z,71.70
2019-03-11T20:23:46.598Z,71.50
2019-03-11T20:26:14.618Z,71.60
2019-03-11T20:28:42.498Z,71.50
2019-03-11T20:31:10.028Z,71.60
2019-03-11T20:33:37.963Z,71.10
2019-03-11T20:36:05.694Z,71.00
2019-03-11T20:38:33.659Z,70.40
2019-03-11T20:41:01.320Z,70.50
2019-03-11T20:43:28.951Z,69.30
2019-03-11T20:45:56.612Z,70.20
2019-03-11T20:48:24.809Z,70.50
2019-03-11T20:50:52.675Z,70.30
2019-03-11T20:53:20.975Z,70.80
2019-03-11T20:55:48.938Z,72.10
2019-03-11T20:58:16.585Z,71.70
2019-03-11T21:00:44.722Z,71.20
2019-03-11T21:03:12.498Z,70.80
2019-03-11T21:05:40.391Z,71.80
2019-03-11T21:08:08.372Z,71.40
2019-03-11T21:10:36.311Z,72.70
2019-03-11T21:13:03.960Z,70.80
2019-03-11T21:15:32.215Z,71.10
2019-03-11T21:18:00.169Z,71.80
2019-03-11T21:20:28.142Z,71.70
2019-03-11T21:22:56.137Z,71.50
2019-03-11T21:25:23.662Z,71.80
2019-03-11T21:27:51.314Z,72.20
2019-03-11T21:30:19.332Z,72.40
2019-03-11T21:32:47.056Z,71.90
2019-03-11T21:35:15.271Z,72.20
2019-03-11T21:37:43.249Z,72.00
2019-03-11T21:40:12.621Z,71.70
2019-03-11T21:42:40.379Z,71.60
2019-03-11T21:45:09.439Z,71.20
2019-03-11T21:47:37.188Z,72.40
2019-03-11T21:50:05.536Z,72.80
2019-03-11T21:52:33.547Z,72.20
2019-03-11T21:55:01.181Z,71.70
2019-03-11T21:57:28.708Z,71.70
2019-03-11T21:59:56.771Z,71.20
2019-03-11T22:02:24.688Z,71.80
2019-03-11T22:04:52.642Z,71.60
2019-03-11T22:07:20.305Z,71.10
2019-03-11T22:09:47.867Z,71.90
2019-03-11T22:12:15.454Z,72.40
2019-03-11T22:14:42.984Z,72.50
2019-03-11T22:17:10.567Z,72.90
2019-03-11T22:19:38.355Z,72.30
2019-03-11T22:22:06.294Z,73.10
2019-03-11T22:24:34.323Z,73.90
2019-03-11T22:27:02.170Z,74.40
2019-03-11T22:29:29.725Z,74.20
2019-03-11T22:31:57.962Z,74.70
2019-03-11T22:34:25.535Z,75.00
2019-03-11T22:36:55.912Z,74.40
2019-03-11T22:39:23.273Z,74.00
2019-03-11T22:41:52.745Z,74.20
2019-03-11T22:44:20.795Z,74.60
2019-03-11T22:46:48.245Z,74.60
2019-03-11T22:49:15.868Z,74.40
2019-03-11T22:51:43.938Z,74.20
2019-03-11T22:54:11.474Z,73.50
2019-03-11T22:56:39.648Z,74.80
2019-03-11T22:59:07.725Z,74.70
2019-03-11T23:01:35.569Z,74.60
2019-03-11T23:04:03.585Z,74.50
2019-03-11T23:06:31.343Z,74.80
2019-03-11T23:08:58.994Z,75.20
2019-03-11T23:11:26.959Z,75.90
2019-03-11T23:13:55.138Z,75.30
2019-03-11T23:16:22.696Z,76.20
2019-03-11T23:18:50.624Z,75.40
2019-03-11T23:21:18.510Z,76.60
2019-03-11T23:23:46.990Z,76.50
2019-03-11T23:26:15.197Z,76.80
2019-03-11T23:28:42.770Z,76.60
2019-03-11T23:31:10.933Z,77.50
2019-03-11T23:33:38.519Z,77.60
2019-03-11T23:36:07.436Z,78.00
2019-03-11T23:38:35.122Z,77.20
2019-03-11T23:41:03.042Z,77.70
2019-03-11T23:43:30.677Z,78.00
2019-03-11T23:45:58.175Z,78.00
2019-03-11T23:48:25.799Z,79.30
2019-03-11T23:50:53.598Z,79.20
2019-03-11T23:53:21.430Z,79.10
2019-03-11T23:55:48.896Z,79.00
2019-03-11T23:58:16.765Z,79.50
